createdAt,value
2023-03-06T00:01:03.013Z,17.80
2023-03-06T00:03:30.486Z,14.60
2023-03-06T00:05:58.862Z,17.67
2023-03-06T00:08:28.826Z,16.35
2023-03-06T00:10:57.029Z,14.05
2023-03-06T00:13:26.782Z,12.80
2023-03-06T00:15:54.526Z,14.65
2023-03-06T00:18:22.004Z,16.40
2023-03-06T00:20:49.468Z,12.80
2023-03-06T00:23:16.887Z,12.77
2023-03-06T00:25:45.853Z,14.18
2023-03-06T00:28:15.750Z,14.07
2023-03-06T00:30:44.414Z,14.85
2023-03-06T00:33:12.255Z,19.23
2023-03-06T00:35:41.242Z,13.55
2023-03-06T00:38:12.796Z,12.90
2023-03-06T00:40:40.606Z,12.23
2023-03-06T00:43:08.060Z,15.17
2023-03-06T00:45:36.501Z,15.27
2023-03-06T00:48:04.577Z,15.35
2023-03-06T00:50:32.239Z,44.17
2023-03-06T00:53:00.524Z,15.60
2023-03-06T00:55:29.522Z,18.50
2023-03-06T00:57:57.034Z,29.35
2023-03-06T01:00:25.029Z,24.48
2023-03-06T01:02:53.716Z,31.73
2023-03-06T01:05:22.891Z,49.85
2023-03-06T01:07:50.370Z,43.40
2023-03-06T01:10:17.945Z,44.55
2023-03-06T01:12:46.122Z,38.47
2023-03-06T01:15:14.338Z,44.45
2023-03-06T01:17:41.814Z,41.60
2023-03-06T01:20:15.057Z,50.65
2023-03-06T01:22:43.475Z,80.63
2023-03-06T01:25:11.759Z,95.18
2023-03-06T01:27:39.318Z,55.72
2023-03-06T01:30:07.831Z,46.75
2023-03-06T01:32:35.300Z,30.65
2023-03-06T01:35:03.990Z,26.30
2023-03-06T01:37:31.414Z,26.35
2023-03-06T01:39:58.757Z,28.45
2023-03-06T01:42:26.057Z,24.77
2023-03-06T01:45:24.077Z,20.85
2023-03-06T01:47:51.479Z,23.55
2023-03-06T01:50:19.045Z,26.52
2023-03-06T01:52:54.293Z,96.78
2023-03-06T01:55:29.609Z,70.72
2023-03-06T01:58:03.490Z,188.68
2023-03-06T02:00:31.172Z,158.55
2023-03-06T02:03:11.285Z,75.00
2023-03-06T02:05:41.308Z,39.30
2023-03-06T02:08:17.838Z,27.77
2023-03-06T02:11:13.894Z,23.92
2023-03-06T02:13:43.431Z,21.50
2023-03-06T02:16:13.587Z,22.77
2023-03-06T02:18:44.076Z,20.88
2023-03-06T02:21:21.858Z,24.88
2023-03-06T02:24:13.708Z,23.75
2023-03-06T02:26:43.344Z,26.58
2023-03-06T02:29:11.513Z,30.67
2023-03-06T02:31:38.922Z,31.83
2023-03-06T02:34:14.690Z,39.40
2023-03-06T02:36:55.157Z,25.42
2023-03-06T02:39:26.723Z,23.52
2023-03-06T02:41:55.081Z,24.25
2023-03-06T02:46:51.106Z,31.75
2023-03-06T02:49:18.474Z,32.55
2023-03-06T02:51:46.190Z,37.05
2023-03-06T02:54:13.595Z,76.05
2023-03-06T02:56:43.139Z,87.35
2023-03-06T02:59:11.193Z,108.30
2023-03-06T03:01:39.258Z,113.28
2023-03-06T03:04:06.955Z,134.20
2023-03-06T03:06:34.369Z,132.35
2023-03-06T03:09:02.267Z,131.98
2023-03-06T03:11:29.853Z,128.73
2023-03-06T03:13:57.210Z,130.65
2023-03-06T03:16:27.342Z,118.28
2023-03-06T03:18:58.518Z,148.63
2023-03-06T03:23:55.996Z,208.32
2023-03-06T03:26:26.072Z,198.10
2023-03-06T03:29:08.401Z,185.00
2023-03-06T03:31:35.842Z,133.40
2023-03-06T03:34:04.209Z,156.18
2023-03-06T03:36:35.208Z,137.15
2023-03-06T03:39:04.608Z,89.93
2023-03-06T03:44:04.182Z,78.50
2023-03-06T03:46:32.455Z,66.80
2023-03-06T03:49:01.760Z,71.88
2023-03-06T03:51:29.248Z,84.38
2023-03-06T03:53:58.604Z,73.38
2023-03-06T03:56:29.389Z,73.57
2023-03-06T03:59:03.089Z,66.00
2023-03-06T04:01:39.666Z,62.97
2023-03-06T04:04:08.127Z,60.90
2023-03-06T04:06:36.088Z,57.55
2023-03-06T04:09:04.599Z,47.50
2023-03-06T04:13:59.997Z,44.30
2023-03-06T04:16:27.485Z,45.83
2023-03-06T04:18:55.493Z,41.53
2023-03-06T04:21:23.163Z,59.10
2023-03-06T04:23:50.622Z,54.55
2023-03-06T04:26:18.019Z,48.95
2023-03-06T04:28:46.182Z,232.65
2023-03-06T04:31:13.974Z,100.20
2023-03-06T04:33:41.514Z,76.13
2023-03-06T04:36:32.124Z,67.60
2023-03-06T04:39:05.179Z,68.13
2023-03-06T04:41:34.550Z,65.47
2023-03-06T04:44:02.270Z,80.03
2023-03-06T04:46:29.687Z,184.40
2023-03-06T04:48:58.194Z,110.88
2023-03-06T04:51:26.088Z,90.13
2023-03-06T04:53:53.622Z,90.88
2023-03-06T04:56:21.041Z,88.38
2023-03-06T04:58:48.503Z,70.13
2023-03-06T05:01:15.992Z,71.78
2023-03-06T05:03:43.419Z,207.32
2023-03-06T05:06:10.884Z,146.38
2023-03-06T05:08:38.923Z,99.70
2023-03-06T05:11:06.360Z,87.53
2023-03-06T05:13:34.045Z,127.13
2023-03-06T05:16:06.280Z,70.90
2023-03-06T05:18:34.846Z,60.50
2023-03-06T05:23:33.101Z,50.40
2023-03-06T05:26:00.648Z,49.88
2023-03-06T05:28:28.682Z,46.58
2023-03-06T05:30:56.330Z,44.53
2023-03-06T05:33:23.814Z,47.50
2023-03-06T05:35:51.260Z,37.95
2023-03-06T05:38:18.844Z,51.60
2023-03-06T05:40:46.456Z,63.22
2023-03-06T05:43:13.999Z,60.75
2023-03-06T05:45:41.783Z,77.63
2023-03-06T05:48:11.835Z,119.35
2023-03-06T05:50:40.269Z,154.68
2023-03-06T05:53:07.627Z,52.28
2023-03-06T05:55:35.217Z,57.85
2023-03-06T05:58:02.626Z,79.27
2023-03-06T06:00:30.173Z,79.93
2023-03-06T06:03:02.016Z,95.45
2023-03-06T06:05:29.382Z,66.70
2023-03-06T06:07:56.804Z,65.90
2023-03-06T06:10:24.145Z,50.55
2023-03-06T06:12:51.528Z,53.55
2023-03-06T06:15:18.909Z,43.63
2023-03-06T06:17:46.360Z,40.03
2023-03-06T06:20:14.551Z,65.93
2023-03-06T06:22:41.920Z,55.78
2023-03-06T06:25:09.638Z,51.42
2023-03-06T06:27:36.985Z,49.17
2023-03-06T06:30:07.161Z,52.35
2023-03-06T06:32:34.937Z,53.55
2023-03-06T06:35:02.931Z,149.55
2023-03-06T06:37:31.180Z,47.42
2023-03-06T06:39:58.484Z,40.53
2023-03-06T06:42:33.263Z,32.10
2023-03-06T06:45:05.189Z,29.95
2023-03-06T06:47:34.229Z,33.03
2023-03-06T06:50:01.713Z,77.07
2023-03-06T06:52:29.090Z,218.55
2023-03-06T06:54:56.687Z,209.57
2023-03-06T06:57:23.990Z,172.50
2023-03-06T06:59:53.696Z,103.70
2023-03-06T07:02:21.906Z,122.13
2023-03-06T07:05:03.228Z,111.00
2023-03-06T07:07:35.718Z,113.22
2023-03-06T07:10:12.734Z,103.75
2023-03-06T07:12:40.292Z,112.72
2023-03-06T07:15:09.105Z,108.17
2023-03-06T07:17:36.434Z,103.47
2023-03-06T07:20:07.009Z,116.85
2023-03-06T07:22:49.936Z,134.23
2023-03-06T07:25:19.824Z,107.30
2023-03-06T07:27:53.351Z,96.38
2023-03-06T07:30:25.013Z,88.35
2023-03-06T07:32:55.214Z,68.63
2023-03-06T07:35:24.931Z,64.82
2023-03-06T07:37:52.771Z,64.13
2023-03-06T07:40:21.423Z,63.00
2023-03-06T07:42:48.853Z,74.35
2023-03-06T07:45:20.346Z,68.47
2023-03-06T07:47:50.936Z,65.83
2023-03-06T07:50:19.698Z,64.57
2023-03-06T07:52:50.121Z,74.05
2023-03-06T07:55:18.542Z,63.30
2023-03-06T07:57:46.417Z,77.43
2023-03-06T08:00:16.115Z,70.22
2023-03-06T08:02:43.608Z,81.28
2023-03-06T08:05:15.504Z,71.57
2023-03-06T08:07:45.049Z,65.68
2023-03-06T08:10:16.483Z,57.15
2023-03-06T08:12:44.201Z,64.00
2023-03-06T08:15:12.952Z,71.38
2023-03-06T08:17:40.782Z,53.05
2023-03-06T08:20:10.428Z,50.08
2023-03-06T08:22:38.620Z,50.50
2023-03-06T08:25:07.559Z,36.00
2023-03-06T08:27:35.538Z,36.80
2023-03-06T08:30:03.789Z,35.40
2023-03-06T08:34:58.471Z,33.75
2023-03-06T08:37:25.917Z,41.27
2023-03-06T08:39:53.309Z,41.07
2023-03-06T08:42:20.621Z,34.17
2023-03-06T08:44:48.016Z,37.73
2023-03-06T08:47:15.398Z,32.07
2023-03-06T08:49:42.741Z,29.90
2023-03-06T08:52:11.158Z,29.60
2023-03-06T08:54:39.780Z,29.30
2023-03-06T08:57:07.201Z,28.25
2023-03-06T08:59:35.212Z,33.77
2023-03-06T09:02:03.965Z,27.52
2023-03-06T09:04:31.745Z,21.00
2023-03-06T09:07:00.536Z,21.23
2023-03-06T09:09:28.007Z,24.35
2023-03-06T09:11:56.297Z,28.40
2023-03-06T09:16:50.859Z,30.17
2023-03-06T09:19:18.198Z,31.23
2023-03-06T09:21:45.610Z,24.30
2023-03-06T09:24:12.989Z,21.67
2023-03-06T09:26:46.027Z,18.40
2023-03-06T09:29:16.335Z,23.00
2023-03-06T09:31:44.945Z,23.30
2023-03-06T09:34:12.569Z,25.33
2023-03-06T09:36:55.040Z,22.35
2023-03-06T09:39:26.149Z,23.55
2023-03-06T09:41:55.250Z,18.73
2023-03-06T09:44:31.066Z,20.58
2023-03-06T09:47:44.838Z,23.10
2023-03-06T09:50:29.300Z,23.38
2023-03-06T09:53:11.837Z,24.20
2023-03-06T09:55:41.120Z,23.15
2023-03-06T09:58:27.585Z,25.67
2023-03-06T10:01:05.951Z,21.85
2023-03-06T10:04:12.584Z,22.92
2023-03-06T10:06:49.215Z,23.77
2023-03-06T10:09:20.692Z,22.70
2023-03-06T10:11:54.363Z,21.65
2023-03-06T10:14:47.735Z,22.88
2023-03-06T10:17:21.070Z,20.55
2023-03-06T10:19:49.376Z,19.73
2023-03-06T10:22:33.171Z,18.92
2023-03-06T10:25:25.994Z,21.02
2023-03-06T10:28:16.828Z,17.98
2023-03-06T10:31:26.646Z,18.63
2023-03-06T10:34:11.888Z,17.55
2023-03-06T10:36:39.255Z,14.07
2023-03-06T10:39:22.536Z,18.20
2023-03-06T10:41:50.176Z,15.18
2023-03-06T10:44:20.337Z,14.35
2023-03-06T10:46:52.708Z,16.27
2023-03-06T10:49:37.582Z,18.42
2023-03-06T10:52:14.207Z,17.08
2023-03-06T10:54:45.010Z,20.00
2023-03-06T10:57:29.691Z,22.65
2023-03-06T11:00:01.208Z,18.48
2023-03-06T11:02:40.918Z,11.60
2023-03-06T11:05:20.754Z,10.63
2023-03-06T11:07:59.474Z,13.38
2023-03-06T11:10:30.246Z,11.70
2023-03-06T11:13:25.888Z,16.77
2023-03-06T11:16:03.278Z,11.80
2023-03-06T11:18:42.769Z,9.48
2023-03-06T11:21:32.759Z,8.77
2023-03-06T11:24:16.696Z,8.80
2023-03-06T11:26:50.479Z,12.70
2023-03-06T11:29:31.230Z,12.98
2023-03-06T11:32:33.148Z,11.38
2023-03-06T11:35:12.284Z,11.27
2023-03-06T11:38:10.834Z,11.18
2023-03-06T11:40:51.385Z,8.70
2023-03-06T11:44:06.422Z,13.15
2023-03-06T11:46:57.933Z,8.10
2023-03-06T11:49:43.481Z,11.90
2023-03-06T11:52:44.487Z,6.55
2023-03-06T11:55:17.514Z,7.72
2023-03-06T11:58:11.964Z,6.25
2023-03-06T12:01:00.155Z,6.75
2023-03-06T12:03:42.144Z,18.13
2023-03-06T12:06:18.328Z,7.07
2023-03-06T12:08:51.447Z,6.72
2023-03-06T12:12:01.087Z,7.75
2023-03-06T12:14:46.700Z,8.25
2023-03-06T12:17:41.214Z,7.82
2023-03-06T12:20:14.512Z,10.25
2023-03-06T12:23:16.141Z,13.93
2023-03-06T12:25:51.515Z,22.17
2023-03-06T12:28:54.778Z,11.30
2023-03-06T12:31:54.597Z,13.32
2023-03-06T12:35:02.415Z,11.23
2023-03-06T12:37:51.451Z,39.40
2023-03-06T12:40:36.078Z,11.20
2023-03-06T12:43:39.972Z,11.00
2023-03-06T12:46:26.130Z,11.32
2023-03-06T12:49:15.621Z,11.45
2023-03-06T12:51:46.362Z,14.38
2023-03-06T12:54:14.935Z,14.35
2023-03-06T12:56:43.557Z,14.48
2023-03-06T12:59:38.456Z,20.48
2023-03-06T13:02:27.636Z,10.77
2023-03-06T13:05:03.769Z,11.13
2023-03-06T13:07:58.033Z,11.07
2023-03-06T13:10:30.722Z,15.65
2023-03-06T13:13:05.272Z,13.13
2023-03-06T13:16:09.321Z,19.30
2023-03-06T13:18:36.884Z,17.70
2023-03-06T13:21:04.961Z,17.90
2023-03-06T13:23:32.253Z,15.23
2023-03-06T13:26:25.056Z,21.80
2023-03-06T13:28:56.226Z,19.13
2023-03-06T13:32:14.628Z,21.30
2023-03-06T13:34:48.535Z,22.27
2023-03-06T13:37:19.407Z,29.90
2023-03-06T13:39:55.415Z,8.82
2023-03-06T13:42:37.273Z,10.65
2023-03-06T13:45:14.171Z,10.98
2023-03-06T13:48:37.534Z,11.82
2023-03-06T13:50:49.547Z,9.88
2023-03-06T13:56:50.374Z,7.00
2023-03-06T13:59:17.644Z,8.35
2023-03-06T14:02:15.753Z,12.15
2023-03-06T14:04:53.677Z,17.02
2023-03-06T14:07:30.304Z,16.15
2023-03-06T14:10:22.868Z,11.52
2023-03-06T14:12:50.184Z,5.40
2023-03-06T14:15:21.751Z,7.65
2023-03-06T14:18:07.440Z,6.57
2023-03-06T14:20:52.362Z,8.20
2023-03-06T14:23:42.538Z,8.07
2023-03-06T14:26:24.835Z,9.85
2023-03-06T14:28:52.181Z,8.48
2023-03-06T14:31:41.300Z,8.03
2023-03-06T14:34:22.400Z,13.38
2023-03-06T14:36:58.194Z,23.67
2023-03-06T14:39:39.149Z,14.05
2023-03-06T14:42:24.735Z,12.45
2023-03-06T14:45:16.207Z,18.45
2023-03-06T14:47:50.389Z,32.25
2023-03-06T14:50:20.164Z,15.02
2023-03-06T14:52:50.372Z,20.35
2023-03-06T14:55:25.452Z,27.42
2023-03-06T14:58:20.175Z,10.55
2023-03-06T15:00:54.575Z,9.75
2023-03-06T15:03:35.632Z,18.60
2023-03-06T15:06:04.869Z,11.32
2023-03-06T15:08:39.166Z,12.10
2023-03-06T15:11:07.939Z,24.65
2023-03-06T15:13:35.778Z,21.33
2023-03-06T15:16:06.203Z,18.10
2023-03-06T15:18:35.475Z,44.83
2023-03-06T15:21:16.288Z,46.88
2023-03-06T15:23:48.434Z,36.90
2023-03-06T15:26:36.883Z,51.03
2023-03-06T15:29:10.850Z,80.05
2023-03-06T15:31:44.532Z,36.30
2023-03-06T15:34:11.930Z,49.35
2023-03-06T15:36:44.897Z,23.90
2023-03-06T15:39:39.334Z,19.17
2023-03-06T15:42:28.090Z,26.73
2023-03-06T15:45:05.597Z,27.90
2023-03-06T15:47:33.152Z,30.48
2023-03-06T15:50:00.506Z,42.80
2023-03-06T15:52:27.948Z,57.58
2023-03-06T15:54:55.250Z,38.15
2023-03-06T15:57:26.700Z,30.95
2023-03-06T15:59:56.250Z,28.75
2023-03-06T16:02:24.606Z,32.95
2023-03-06T16:04:52.673Z,58.80
2023-03-06T16:07:20.728Z,42.10
2023-03-06T16:09:48.576Z,40.58
2023-03-06T16:12:20.222Z,37.53
2023-03-06T16:14:48.854Z,40.20
2023-03-06T16:17:17.462Z,47.72
2023-03-06T16:19:45.291Z,59.88
2023-03-06T16:22:12.853Z,48.72
2023-03-06T16:24:40.704Z,40.65
2023-03-06T16:27:19.074Z,44.08
2023-03-06T16:29:46.618Z,45.15
2023-03-06T16:32:14.423Z,43.47
2023-03-06T16:34:41.967Z,30.77
2023-03-06T16:37:13.404Z,38.20
2023-03-06T16:39:40.838Z,34.85
2023-03-06T16:42:08.448Z,33.30
2023-03-06T16:44:35.891Z,56.03
2023-03-06T16:47:03.313Z,24.25
2023-03-06T16:49:30.728Z,40.67
2023-03-06T16:51:58.100Z,22.87
2023-03-06T16:54:26.237Z,34.38
2023-03-06T16:56:53.685Z,29.95
2023-03-06T16:59:21.228Z,25.92
2023-03-06T17:01:48.613Z,28.23
2023-03-06T17:04:15.955Z,19.73
2023-03-06T17:06:43.437Z,32.08
2023-03-06T17:09:11.072Z,54.87
2023-03-06T17:11:38.817Z,67.00
2023-03-06T17:14:07.017Z,88.85
2023-03-06T17:16:36.537Z,82.68
2023-03-06T17:19:04.080Z,130.18
2023-03-06T17:21:34.408Z,126.53
2023-03-06T17:24:03.691Z,144.93
2023-03-06T17:26:31.337Z,147.82
2023-03-06T17:28:58.739Z,148.63
2023-03-06T17:31:28.560Z,154.70
2023-03-06T17:33:59.258Z,149.82
2023-03-06T17:36:31.275Z,149.82
2023-03-06T17:39:01.953Z,171.15
2023-03-06T17:41:29.959Z,165.15
2023-03-06T17:43:58.307Z,143.18
2023-03-06T17:46:26.270Z,159.02
2023-03-06T17:48:55.474Z,158.40
2023-03-06T17:51:22.892Z,125.63
2023-03-06T17:53:52.147Z,70.78
2023-03-06T17:56:19.801Z,54.58
2023-03-06T17:58:47.648Z,54.17
2023-03-06T18:01:22.160Z,62.17
2023-03-06T18:03:51.532Z,77.80
2023-03-06T18:06:22.070Z,102.75
2023-03-06T18:08:52.375Z,137.05
2023-03-06T18:11:21.088Z,97.63
2023-03-06T18:13:49.293Z,142.45
2023-03-06T18:16:19.950Z,121.88
2023-03-06T18:18:47.408Z,123.85
2023-03-06T18:21:16.700Z,79.28
2023-03-06T18:23:44.417Z,101.70
2023-03-06T18:26:25.524Z,87.45
2023-03-06T18:28:56.565Z,87.25
2023-03-06T18:31:34.439Z,101.72
2023-03-06T18:34:08.048Z,87.35
2023-03-06T18:36:37.149Z,79.45
2023-03-06T18:39:08.940Z,69.63
2023-03-06T18:41:37.331Z,67.38
2023-03-06T18:44:05.967Z,74.05
2023-03-06T18:46:37.303Z,88.70
2023-03-06T18:49:05.641Z,75.97
2023-03-06T18:51:33.736Z,70.13
2023-03-06T18:54:03.058Z,72.20
2023-03-06T18:56:31.123Z,76.88
2023-03-06T18:59:06.934Z,93.05
2023-03-06T19:01:34.923Z,110.03
2023-03-06T19:04:04.497Z,171.65
2023-03-06T19:06:32.087Z,217.82
2023-03-06T19:09:01.426Z,245.93
2023-03-06T19:11:30.295Z,333.17
2023-03-06T19:13:58.440Z,244.40
2023-03-06T19:16:28.522Z,157.40
2023-03-06T19:18:57.294Z,107.07
2023-03-06T19:21:27.549Z,77.32
2023-03-06T19:23:56.140Z,51.65
2023-03-06T19:28:52.587Z,64.78
2023-03-06T19:31:25.357Z,93.80
2023-03-06T19:33:55.974Z,75.65
2023-03-06T19:36:27.798Z,64.20
2023-03-06T19:38:57.446Z,97.50
2023-03-06T19:41:25.696Z,101.82
2023-03-06T19:43:58.303Z,100.55
2023-03-06T19:46:27.340Z,111.95
2023-03-06T19:49:01.399Z,137.73
2023-03-06T19:51:29.437Z,114.60
2023-03-06T19:53:57.708Z,92.38
2023-03-06T19:56:28.344Z,65.50
2023-03-06T19:58:56.509Z,50.88
2023-03-06T20:01:26.569Z,44.55
2023-03-06T20:03:59.444Z,56.00
2023-03-06T20:06:33.809Z,70.03
2023-03-06T20:09:04.915Z,78.82
2023-03-06T20:11:32.528Z,56.97
2023-03-06T20:14:03.842Z,49.33
2023-03-06T20:16:33.066Z,41.25
2023-03-06T20:19:02.898Z,33.17
2023-03-06T20:21:35.428Z,23.98
2023-03-06T20:24:03.196Z,14.95
2023-03-06T20:26:31.614Z,37.10
2023-03-06T20:28:59.315Z,26.38
2023-03-06T20:31:29.339Z,22.77
2023-03-06T20:33:59.538Z,25.45
2023-03-06T20:36:35.940Z,23.23
2023-03-06T20:39:11.773Z,27.45
2023-03-06T20:41:40.744Z,41.88
2023-03-06T20:44:14.506Z,37.25
2023-03-06T20:46:44.420Z,26.95
2023-03-06T20:49:13.472Z,29.67
2023-03-06T20:51:41.840Z,39.58
2023-03-06T20:54:14.026Z,50.85
2023-03-06T20:56:45.998Z,56.30
2023-03-06T20:59:14.568Z,67.25
2023-03-06T21:04:14.089Z,42.58
2023-03-06T21:06:46.460Z,24.90
2023-03-06T21:09:17.032Z,23.05
2023-03-06T21:11:45.103Z,30.80
2023-03-06T21:14:14.345Z,31.35
2023-03-06T21:16:43.022Z,33.15
2023-03-06T21:19:11.116Z,35.35
2023-03-06T21:21:38.749Z,39.45
2023-03-06T21:24:06.350Z,30.23
2023-03-06T21:26:34.171Z,33.67
2023-03-06T21:29:02.933Z,36.17
2023-03-06T21:31:31.204Z,36.70
2023-03-06T21:33:59.446Z,32.88
2023-03-06T21:36:27.736Z,45.85
2023-03-06T21:38:55.819Z,69.50
2023-03-06T21:41:30.397Z,72.65
2023-03-06T21:44:03.863Z,40.60
2023-03-06T21:46:31.734Z,45.65
2023-03-06T21:48:59.801Z,37.75
2023-03-06T21:51:27.947Z,39.13
2023-03-06T21:53:55.854Z,46.78
2023-03-06T21:56:26.263Z,33.33
2023-03-06T21:58:54.336Z,28.75
2023-03-06T22:01:27.370Z,62.38
2023-03-06T22:03:55.258Z,47.70
2023-03-06T22:06:26.635Z,66.35
2023-03-06T22:09:00.584Z,79.72
2023-03-06T22:11:31.399Z,76.13
2023-03-06T22:13:59.915Z,47.20
2023-03-06T22:18:54.952Z,51.88
2023-03-06T22:21:23.881Z,28.52
2023-03-06T22:23:58.383Z,29.30
2023-03-06T22:26:30.149Z,35.10
2023-03-06T22:28:57.732Z,20.45
2023-03-06T22:31:28.871Z,19.88
2023-03-06T22:33:59.802Z,16.85
2023-03-06T22:36:30.655Z,23.35
2023-03-06T22:39:01.643Z,29.27
2023-03-06T22:41:30.018Z,27.58
2023-03-06T22:44:00.225Z,18.05
2023-03-06T22:46:28.240Z,19.38
2023-03-06T22:48:57.615Z,17.10
2023-03-06T22:51:26.217Z,17.65
2023-03-06T22:56:23.115Z,11.88
2023-03-06T22:58:51.033Z,11.80
2023-03-06T23:01:21.849Z,10.65
2023-03-06T23:03:52.673Z,10.13
2023-03-06T23:06:24.172Z,7.50
2023-03-06T23:08:58.743Z,22.80
2023-03-06T23:11:27.987Z,20.58
2023-03-06T23:14:16.040Z,16.95
2023-03-06T23:17:01.594Z,14.23
2023-03-06T23:19:49.825Z,15.63
2023-03-06T23:22:36.264Z,17.67
2023-03-06T23:25:21.989Z,11.27
2023-03-06T23:27:49.420Z,10.63
2023-03-06T23:30:17.121Z,16.45
2023-03-06T23:32:46.024Z,15.70
2023-03-06T23:35:14.074Z,11.55
2023-03-06T23:37:41.410Z,16.17
2023-03-06T23:40:10.208Z,19.05
2023-03-06T23:45:05.513Z,8.90
2023-03-06T23:47:34.250Z,8.27
2023-03-06T23:52:28.838Z,8.18
2023-03-06T23:54:56.161Z,10.45
2023-03-06T23:57:23.940Z,19.40
2023-03-06T23:59:51.348Z,15.25
